sensor_id;sensor_type;location;lat;lon;timestamp;P1;durP1;ratioP1;P2;durP2;ratioP2
68224;SDS011;57497;43.322;21.932;2022-11-13T00:00:35;17.2;;;11.2;;
68224;SDS011;57497;43.322;21.932;2022-11-13T00:05:36;20.3;;;10.1;;
68224;SDS011;57497;43.322;21.932;2022-11-13T00:10:34;9.9;;;7.8;;
68224;SDS011;57497;43.322;21.932;2022-11-13T00:15:33;23;;;11;;
68224;SDS011;57497;43.322;21.932;2022-11-13T00:20:34;15.9;;;9.2;;
68224;SDS011;57497;43.322;21.932;2022-11-13T00:25:34;25.6;;;9.2;;
68224;SDS011;57497;43.322;21.932;2022-11-13T00:30:33;13.4;;;9.8;;
68224;SDS011;57497;43.322;21.932;2022-11-13T00:35:33;20.5;;;11.6;;
68224;SDS011;57497;43.322;21.932;2022-11-13T00:40:33;24.6;;;14.9;;
68224;SDS011;57497;43.322;21.932;2022-11-13T00:45:33;23.8;;;16.6;;
68224;SDS011;57497;43.322;21.932;2022-11-13T00:50:33;31.3;;;21.3;;
68224;SDS011;57497;43.322;21.932;2022-11-13T00:55:33;32.8;;;21.8;;
68224;SDS011;57497;43.322;21.932;2022-11-13T01:00:34;41.4;;;21.9;;
68224;SDS011;57497;43.322;21.932;2022-11-13T01:05:34;34.5;;;21.5;;
68224;SDS011;57497;43.322;21.932;2022-11-13T01:10:34;32.3;;;18.9;;
68224;SDS011;57497;43.322;21.932;2022-11-13T01:15:33;33.9;;;21.3;;
68224;SDS011;57497;43.322;21.932;2022-11-13T01:20:33;31.2;;;18.9;;
68224;SDS011;57497;43.322;21.932;2022-11-13T01:25:33;32.7;;;18.2;;
68224;SDS011;57497;43.322;21.932;2022-11-13T01:30:33;24.9;;;14.2;;
68224;SDS011;57497;43.322;21.932;2022-11-13T01:35:33;29.2;;;16.7;;
68224;SDS011;57497;43.322;21.932;2022-11-13T01:40:33;29.8;;;13.3;;
68224;SDS011;57497;43.322;21.932;2022-11-13T01:46:10;25.1;;;13.9;;
68224;SDS011;57497;43.322;21.932;2022-11-13T01:50:33;28.6;;;14;;
68224;SDS011;57497;43.322;21.932;2022-11-13T01:55:33;27.2;;;14.4;;
68224;SDS011;57497;43.322;21.932;2022-11-13T02:00:33;25.8;;;15.2;;
68224;SDS011;57497;43.322;21.932;2022-11-13T02:05:33;32.4;;;17.8;;
68224;SDS011;57497;43.322;21.932;2022-11-13T02:10:33;26.8;;;15;;
68224;SDS011;57497;43.322;21.932;2022-11-13T02:15:32;15.2;;;11;;
68224;SDS011;57497;43.322;21.932;2022-11-13T02:20:34;15.5;;;10.2;;
68224;SDS011;57497;43.322;21.932;2022-11-13T02:25:33;15.9;;;9.5;;
68224;SDS011;57497;43.322;21.932;2022-11-13T02:30:34;17.7;;;9.8;;
68224;SDS011;57497;43.322;21.932;2022-11-13T02:35:34;17.6;;;10.1;;
68224;SDS011;57497;43.322;21.932;2022-11-13T02:40:33;13.6;;;10.8;;
68224;SDS011;57497;43.322;21.932;2022-11-13T02:45:33;31.1;;;18.6;;
68224;SDS011;57497;43.322;21.932;2022-11-13T02:50:33;20.9;;;12.5;;
68224;SDS011;57497;43.322;21.932;2022-11-13T02:55:33;44.7;;;18.3;;
68224;SDS011;57497;43.322;21.932;2022-11-13T03:00:34;23.1;;;15.8;;
68224;SDS011;57497;43.322;21.932;2022-11-13T03:05:33;23.3;;;12.8;;
68224;SDS011;57497;43.322;21.932;2022-11-13T03:10:33;14.3;;;11.1;;
68224;SDS011;57497;43.322;21.932;2022-11-13T03:15:33;26.1;;;16.2;;
68224;SDS011;57497;43.322;21.932;2022-11-13T03:20:34;27.8;;;17.8;;
68224;SDS011;57497;43.322;21.932;2022-11-13T03:25:33;26.9;;;16.4;;
68224;SDS011;57497;43.322;21.932;2022-11-13T03:30:33;29.7;;;19.7;;
68224;SDS011;57497;43.322;21.932;2022-11-13T03:35:33;37.7;;;17.1;;
68224;SDS011;57497;43.322;21.932;2022-11-13T03:40:33;35.2;;;18.2;;
68224;SDS011;57497;43.322;21.932;2022-11-13T03:45:33;28.3;;;17;;
68224;SDS011;57497;43.322;21.932;2022-11-13T03:50:33;28.2;;;17.8;;
68224;SDS011;57497;43.322;21.932;2022-11-13T03:55:33;19.8;;;13.1;;
68224;SDS011;57497;43.322;21.932;2022-11-13T04:00:34;23.4;;;15.5;;
68224;SDS011;57497;43.322;21.932;2022-11-13T04:05:33;23.2;;;15.1;;
68224;SDS011;57497;43.322;21.932;2022-11-13T04:10:33;35.9;;;16.7;;
68224;SDS011;57497;43.322;21.932;2022-11-13T04:15:33;18.3;;;12;;
68224;SDS011;57497;43.322;21.932;2022-11-13T04:20:33;18.6;;;9.8;;
68224;SDS011;57497;43.322;21.932;2022-11-13T04:25:33;27.6;;;15.6;;
68224;SDS011;57497;43.322;21.932;2022-11-13T04:30:33;21.6;;;14.8;;
68224;SDS011;57497;43.322;21.932;2022-11-13T04:35:33;24.1;;;16.5;;
68224;SDS011;57497;43.322;21.932;2022-11-13T04:40:33;24.1;;;16.6;;
68224;SDS011;57497;43.322;21.932;2022-11-13T04:45:33;31.5;;;18.2;;
68224;SDS011;57497;43.322;21.932;2022-11-13T04:50:33;26.6;;;15.1;;
68224;SDS011;57497;43.322;21.932;2022-11-13T04:55:33;21.9;;;14.3;;
68224;SDS011;57497;43.322;21.932;2022-11-13T05:00:34;20.3;;;15;;
68224;SDS011;57497;43.322;21.932;2022-11-13T05:05:33;24.4;;;14.7;;
68224;SDS011;57497;43.322;21.932;2022-11-13T05:10:33;33.1;;;18.3;;
68224;SDS011;57497;43.322;21.932;2022-11-13T05:15:32;42.3;;;19.7;;
68224;SDS011;57497;43.322;21.932;2022-11-13T05:20:32;28.8;;;19.6;;
68224;SDS011;57497;43.322;21.932;2022-11-13T05:25:33;45;;;19.6;;
68224;SDS011;57497;43.322;21.932;2022-11-13T05:30:33;25.7;;;15.9;;
68224;SDS011;57497;43.322;21.932;2022-11-13T05:35:33;22.8;;;13.9;;
68224;SDS011;57497;43.322;21.932;2022-11-13T05:40:32;39.9;;;19.1;;
68224;SDS011;57497;43.322;21.932;2022-11-13T05:45:32;28.2;;;18.3;;
68224;SDS011;57497;43.322;21.932;2022-11-13T05:50:33;29.9;;;18.8;;
68224;SDS011;57497;43.322;21.932;2022-11-13T05:55:33;27.7;;;17.4;;
68224;SDS011;57497;43.322;21.932;2022-11-13T06:00:33;32;;;17.8;;
68224;SDS011;57497;43.322;21.932;2022-11-13T06:05:33;34.5;;;21;;
68224;SDS011;57497;43.322;21.932;2022-11-13T06:10:32;33.8;;;20.4;;
68224;SDS011;57497;43.322;21.932;2022-11-13T06:15:32;39.4;;;20.1;;
68224;SDS011;57497;43.322;21.932;2022-11-13T06:20:33;38.8;;;20;;
68224;SDS011;57497;43.322;21.932;2022-11-13T06:25:32;32.8;;;21.1;;
68224;SDS011;57497;43.322;21.932;2022-11-13T06:30:32;30.3;;;18.8;;
68224;SDS011;57497;43.322;21.932;2022-11-13T06:35:33;25.7;;;16.2;;
68224;SDS011;57497;43.322;21.932;2022-11-13T06:40:32;31.6;;;19.4;;
68224;SDS011;57497;43.322;21.932;2022-11-13T06:45:32;29.5;;;21.5;;
68224;SDS011;57497;43.322;21.932;2022-11-13T06:50:33;29.2;;;21.5;;
68224;SDS011;57497;43.322;21.932;2022-11-13T06:55:33;42.3;;;26.9;;
68224;SDS011;57497;43.322;21.932;2022-11-13T07:00:34;41.4;;;25.7;;
68224;SDS011;57497;43.322;21.932;2022-11-13T07:05:34;42.8;;;21.7;;
68224;SDS011;57497;43.322;21.932;2022-11-13T07:10:32;24.1;;;17.9;;
68224;SDS011;57497;43.322;21.932;2022-11-13T07:15:33;24.7;;;15;;
68224;SDS011;57497;43.322;21.932;2022-11-13T07:20:33;41.2;;;22.7;;
68224;SDS011;57497;43.322;21.932;2022-11-13T07:25:33;40.3;;;22;;
68224;SDS011;57497;43.322;21.932;2022-11-13T07:30:32;33.3;;;23.7;;
68224;SDS011;57497;43.322;21.932;2022-11-13T07:35:33;35.1;;;21.1;;
68224;SDS011;57497;43.322;21.932;2022-11-13T07:40:33;27.7;;;21.7;;
68224;SDS011;57497;43.322;21.932;2022-11-13T07:45:33;34.8;;;20.2;;
68224;SDS011;57497;43.322;21.932;2022-11-13T07:50:33;28.7;;;20;;
68224;SDS011;57497;43.322;21.932;2022-11-13T07:55:33;37.9;;;19.2;;
68224;SDS011;57497;43.322;21.932;2022-11-13T08:00:34;28.5;;;19.1;;
68224;SDS011;57497;43.322;21.932;2022-11-13T08:05:33;27.7;;;19.2;;
68224;SDS011;57497;43.322;21.932;2022-11-13T08:10:34;22.9;;;15.2;;
68224;SDS011;57497;43.322;21.932;2022-11-13T08:15:33;28.7;;;19.8;;
68224;SDS011;57497;43.322;21.932;2022-11-13T08:20:32;43.8;;;18.3;;
68224;SDS011;57497;43.322;21.932;2022-11-13T08:25:34;35.1;;;23.6;;
68224;SDS011;57497;43.322;21.932;2022-11-13T08:30:32;41.4;;;25.2;;
68224;SDS011;57497;43.322;21.932;2022-11-13T08:35:34;29.3;;;19.9;;
68224;SDS011;57497;43.322;21.932;2022-11-13T08:40:33;37.9;;;19;;
68224;SDS011;57497;43.322;21.932;2022-11-13T08:45:33;27.4;;;17;;
68224;SDS011;57497;43.322;21.932;2022-11-13T08:50:33;27.3;;;14.6;;
68224;SDS011;57497;43.322;21.932;2022-11-13T08:55:33;28.1;;;19.4;;
68224;SDS011;57497;43.322;21.932;2022-11-13T09:00:34;25;;;17.2;;
68224;SDS011;57497;43.322;21.932;2022-11-13T09:05:33;27.5;;;16.7;;
68224;SDS011;57497;43.322;21.932;2022-11-13T09:10:34;31.8;;;16.2;;
68224;SDS011;57497;43.322;21.932;2022-11-13T09:15:35;26.7;;;16.4;;
68224;SDS011;57497;43.322;21.932;2022-11-13T09:20:33;43.8;;;17.3;;
68224;SDS011;57497;43.322;21.932;2022-11-13T09:25:33;20.5;;;13.4;;
68224;SDS011;57497;43.322;21.932;2022-11-13T09:30:33;22.2;;;12.8;;
68224;SDS011;57497;43.322;21.932;2022-11-13T09:35:33;23.5;;;14.9;;
68224;SDS011;57497;43.322;21.932;2022-11-13T09:40:33;21.9;;;15.7;;
68224;SDS011;57497;43.322;21.932;2022-11-13T09:45:33;18;;;12.2;;
68224;SDS011;57497;43.322;21.932;2022-11-13T09:50:33;23.4;;;16.7;;
68224;SDS011;57497;43.322;21.932;2022-11-13T09:55:34;40.7;;;14.2;;
68224;SDS011;57497;43.322;21.932;2022-11-13T10:00:34;27.9;;;16;;
68224;SDS011;57497;43.322;21.932;2022-11-13T10:05:35;22.1;;;14.2;;
68224;SDS011;57497;43.322;21.932;2022-11-13T10:10:36;19;;;14.9;;
68224;SDS011;57497;43.322;21.932;2022-11-13T10:15:33;22.3;;;15.4;;
68224;SDS011;57497;43.322;21.932;2022-11-13T10:20:35;19.9;;;14.1;;
68224;SDS011;57497;43.322;21.932;2022-11-13T10:25:34;19.6;;;14.6;;
68224;SDS011;57497;43.322;21.932;2022-11-13T10:31:46;38.6;;;21.6;;
68224;SDS011;57497;43.322;21.932;2022-11-13T10:35:38;30;;;17;;
68224;SDS011;57497;43.322;21.932;2022-11-13T10:40:36;16.6;;;12.2;;
68224;SDS011;57497;43.322;21.932;2022-11-13T10:45:33;17.1;;;13.3;;
68224;SDS011;57497;43.322;21.932;2022-11-13T10:50:33;19.4;;;13.4;;
68224;SDS011;57497;43.322;21.932;2022-11-13T10:55:35;24.8;;;17.4;;
68224;SDS011;57497;43.322;21.932;2022-11-13T11:00:36;22.4;;;15.7;;
68224;SDS011;57497;43.322;21.932;2022-11-13T11:05:33;20.5;;;15.4;;
68224;SDS011;57497;43.322;21.932;2022-11-13T11:10:34;19.1;;;14.8;;
68224;SDS011;57497;43.322;21.932;2022-11-13T11:15:35;17.5;;;11.5;;
68224;SDS011;57497;43.322;21.932;2022-11-13T11:20:37;26.8;;;15.4;;
68224;SDS011;57497;43.322;21.932;2022-11-13T11:25:35;21.5;;;13.2;;
68224;SDS011;57497;43.322;21.932;2022-11-13T11:30:35;18;;;14.8;;
68224;SDS011;57497;43.322;21.932;2022-11-13T11:35:36;15.8;;;13.3;;
68224;SDS011;57497;43.322;21.932;2022-11-13T11:40:35;23.3;;;14.3;;
68224;SDS011;57497;43.322;21.932;2022-11-13T11:45:34;17.7;;;14.9;;
68224;SDS011;57497;43.322;21.932;2022-11-13T11:50:34;33.9;;;17.7;;
68224;SDS011;57497;43.322;21.932;2022-11-13T11:55:38;15.5;;;12.4;;
68224;SDS011;57497;43.322;21.932;2022-11-13T12:00:33;21.4;;;16.8;;
68224;SDS011;57497;43.322;21.932;2022-11-13T12:05:34;18;;;15.2;;
68224;SDS011;57497;43.322;21.932;2022-11-13T12:10:36;19.7;;;12.3;;
68224;SDS011;57497;43.322;21.932;2022-11-13T12:15:34;25.3;;;13.8;;
68224;SDS011;57497;43.322;21.932;2022-11-13T12:20:34;13.3;;;11.7;;
68224;SDS011;57497;43.322;21.932;2022-11-13T12:25:34;19.4;;;12.5;;
68224;SDS011;57497;43.322;21.932;2022-11-13T12:30:35;17.9;;;11.6;;
68224;SDS011;57497;43.322;21.932;2022-11-13T12:35:33;14.5;;;11.6;;
68224;SDS011;57497;43.322;21.932;2022-11-13T12:40:35;14;;;12.5;;
68224;SDS011;57497;43.322;21.932;2022-11-13T12:45:39;13.5;;;12.1;;
68224;SDS011;57497;43.322;21.932;2022-11-13T12:50:33;16.9;;;13.2;;
68224;SDS011;57497;43.322;21.932;2022-11-13T12:55:33;12.7;;;11.4;;
68224;SDS011;57497;43.322;21.932;2022-11-13T13:00:33;14.6;;;13.2;;
68224;SDS011;57497;43.322;21.932;2022-11-13T13:05:36;18.1;;;15.1;;
68224;SDS011;57497;43.322;21.932;2022-11-13T13:10:34;20.1;;;17;;
68224;SDS011;57497;43.322;21.932;2022-11-13T13:15:35;15.8;;;14.2;;
68224;SDS011;57497;43.322;21.932;2022-11-13T13:20:34;19.7;;;17.9;;
68224;SDS011;57497;43.322;21.932;2022-11-13T13:25:34;13.6;;;12.1;;
68224;SDS011;57497;43.322;21.932;2022-11-13T13:30:34;28;;;25.3;;
68224;SDS011;57497;43.322;21.932;2022-11-13T13:35:36;28.1;;;24.3;;
68224;SDS011;57497;43.322;21.932;2022-11-13T13:40:34;15.7;;;12.8;;
68224;SDS011;57497;43.322;21.932;2022-11-13T13:45:36;15.6;;;12.4;;
68224;SDS011;57497;43.322;21.932;2022-11-13T13:50:37;14.2;;;12.6;;
68224;SDS011;57497;43.322;21.932;2022-11-13T13:55:34;17.6;;;13.2;;
68224;SDS011;57497;43.322;21.932;2022-11-13T14:00:34;13.2;;;11;;
68224;SDS011;57497;43.322;21.932;2022-11-13T14:05:34;14;;;10.4;;
68224;SDS011;57497;43.322;21.932;2022-11-13T14:10:34;16.1;;;11.1;;
68224;SDS011;57497;43.322;21.932;2022-11-13T14:15:33;16.1;;;12;;
68224;SDS011;57497;43.322;21.932;2022-11-13T14:20:36;17.4;;;13.6;;
68224;SDS011;57497;43.322;21.932;2022-11-13T14:25:33;17.9;;;13.8;;
68224;SDS011;57497;43.322;21.932;2022-11-13T14:30:33;18.4;;;13.7;;
68224;SDS011;57497;43.322;21.932;2022-11-13T14:35:33;22.5;;;15.7;;
68224;SDS011;57497;43.322;21.932;2022-11-13T14:40:33;17.4;;;12.1;;
68224;SDS011;57497;43.322;21.932;2022-11-13T14:45:33;28.3;;;13.6;;
68224;SDS011;57497;43.322;21.932;2022-11-13T14:50:34;18.4;;;14.2;;
68224;SDS011;57497;43.322;21.932;2022-11-13T14:55:35;16.3;;;13.2;;
68224;SDS011;57497;43.322;21.932;2022-11-13T15:00:34;28.5;;;14.2;;
68224;SDS011;57497;43.322;21.932;2022-11-13T15:05:33;27.6;;;15.3;;
68224;SDS011;57497;43.322;21.932;2022-11-13T15:10:33;25;;;19.6;;
68224;SDS011;57497;43.322;21.932;2022-11-13T15:15:32;20.3;;;15.5;;
68224;SDS011;57497;43.322;21.932;2022-11-13T15:20:33;26.7;;;17.1;;
68224;SDS011;57497;43.322;21.932;2022-11-13T15:25:33;24.7;;;16.6;;
68224;SDS011;57497;43.322;21.932;2022-11-13T15:30:33;21;;;14.6;;
68224;SDS011;57497;43.322;21.932;2022-11-13T15:35:33;21.8;;;14.1;;
68224;SDS011;57497;43.322;21.932;2022-11-13T15:40:33;24.7;;;16.6;;
68224;SDS011;57497;43.322;21.932;2022-11-13T15:45:33;27.5;;;17.4;;
68224;SDS011;57497;43.322;21.932;2022-11-13T15:50:32;36;;;24.5;;
68224;SDS011;57497;43.322;21.932;2022-11-13T15:55:33;35.6;;;21.4;;
68224;SDS011;57497;43.322;21.932;2022-11-13T16:00:33;35.6;;;23.7;;
68224;SDS011;57497;43.322;21.932;2022-11-13T16:05:33;42.3;;;29;;
68224;SDS011;57497;43.322;21.932;2022-11-13T16:10:33;35.1;;;24.3;;
68224;SDS011;57497;43.322;21.932;2022-11-13T16:15:33;35.8;;;24.7;;
68224;SDS011;57497;43.322;21.932;2022-11-13T16:20:33;62.4;;;36;;
68224;SDS011;57497;43.322;21.932;2022-11-13T16:25:33;47.2;;;30;;
68224;SDS011;57497;43.322;21.932;2022-11-13T16:30:33;46.2;;;29.1;;
68224;SDS011;57497;43.322;21.932;2022-11-13T16:35:33;56.5;;;29.9;;
68224;SDS011;57497;43.322;21.932;2022-11-13T16:40:33;48.7;;;29.1;;
68224;SDS011;57497;43.322;21.932;2022-11-13T16:45:33;43.1;;;25.6;;
68224;SDS011;57497;43.322;21.932;2022-11-13T16:50:33;44.1;;;27.3;;
68224;SDS011;57497;43.322;21.932;2022-11-13T16:55:34;30.4;;;20;;
68224;SDS011;57497;43.322;21.932;2022-11-13T17:00:34;38.8;;;27.7;;
68224;SDS011;57497;43.322;21.932;2022-11-13T17:05:33;41.9;;;21.6;;
68224;SDS011;57497;43.322;21.932;2022-11-13T17:10:33;34.3;;;22.6;;
68224;SDS011;57497;43.322;21.932;2022-11-13T17:15:33;33.2;;;22.3;;
68224;SDS011;57497;43.322;21.932;2022-11-13T17:20:34;27.3;;;19.1;;
68224;SDS011;57497;43.322;21.932;2022-11-13T17:25:33;30.1;;;21.6;;
68224;SDS011;57497;43.322;21.932;2022-11-13T17:30:33;33.9;;;23.5;;
68224;SDS011;57497;43.322;21.932;2022-11-13T17:35:33;37.4;;;25.3;;
68224;SDS011;57497;43.322;21.932;2022-11-13T17:40:33;49.9;;;29.6;;
68224;SDS011;57497;43.322;21.932;2022-11-13T17:45:34;44.3;;;27.1;;
68224;SDS011;57497;43.322;21.932;2022-11-13T17:50:33;44.5;;;31.2;;
68224;SDS011;57497;43.322;21.932;2022-11-13T17:55:32;47.5;;;29.9;;
68224;SDS011;57497;43.322;21.932;2022-11-13T18:00:33;56.2;;;32.2;;
68224;SDS011;57497;43.322;21.932;2022-11-13T18:05:34;40.9;;;29.8;;
68224;SDS011;57497;43.322;21.932;2022-11-13T18:10:33;51.6;;;29.7;;
68224;SDS011;57497;43.322;21.932;2022-11-13T18:15:33;40.8;;;27.6;;
68224;SDS011;57497;43.322;21.932;2022-11-13T18:20:33;45.9;;;25;;
68224;SDS011;57497;43.322;21.932;2022-11-13T18:25:33;40.4;;;26.6;;
68224;SDS011;57497;43.322;21.932;2022-11-13T18:30:33;43.7;;;29;;
68224;SDS011;57497;43.322;21.932;2022-11-13T18:35:33;44.9;;;25.3;;
68224;SDS011;57497;43.322;21.932;2022-11-13T18:40:33;47.1;;;31.2;;
68224;SDS011;57497;43.322;21.932;2022-11-13T18:45:33;42.7;;;29.3;;
68224;SDS011;57497;43.322;21.932;2022-11-13T18:50:33;45.8;;;30.2;;
68224;SDS011;57497;43.322;21.932;2022-11-13T18:55:33;51.3;;;30.8;;
68224;SDS011;57497;43.322;21.932;2022-11-13T19:00:33;46.6;;;33.3;;
68224;SDS011;57497;43.322;21.932;2022-11-13T19:05:33;69.9;;;43.3;;
68224;SDS011;57497;43.322;21.932;2022-11-13T19:10:33;55.6;;;34.5;;
68224;SDS011;57497;43.322;21.932;2022-11-13T19:15:34;66.9;;;44;;
68224;SDS011;57497;43.322;21.932;2022-11-13T19:20:36;73.8;;;48;;
68224;SDS011;57497;43.322;21.932;2022-11-13T19:25:33;69.7;;;40;;
68224;SDS011;57497;43.322;21.932;2022-11-13T19:30:33;47.7;;;33.8;;
68224;SDS011;57497;43.322;21.932;2022-11-13T19:35:33;42.6;;;27.2;;
68224;SDS011;57497;43.322;21.932;2022-11-13T19:40:33;41.7;;;28.3;;
68224;SDS011;57497;43.322;21.932;2022-11-13T19:45:34;44;;;28;;
68224;SDS011;57497;43.322;21.932;2022-11-13T19:50:33;52.4;;;33.4;;
68224;SDS011;57497;43.322;21.932;2022-11-13T19:55:32;51.9;;;35;;
68224;SDS011;57497;43.322;21.932;2022-11-13T20:00:33;70;;;36.5;;
68224;SDS011;57497;43.322;21.932;2022-11-13T20:05:33;67.4;;;38;;
68224;SDS011;57497;43.322;21.932;2022-11-13T20:10:33;53.4;;;33.5;;
68224;SDS011;57497;43.322;21.932;2022-11-13T20:15:33;40.9;;;28.7;;
68224;SDS011;57497;43.322;21.932;2022-11-13T20:20:33;49.5;;;31.2;;
68224;SDS011;57497;43.322;21.932;2022-11-13T20:25:33;44.3;;;28;;
68224;SDS011;57497;43.322;21.932;2022-11-13T20:30:33;52.5;;;32;;
68224;SDS011;57497;43.322;21.932;2022-11-13T20:35:33;48.6;;;28.4;;
68224;SDS011;57497;43.322;21.932;2022-11-13T20:40:33;45.4;;;28.7;;
68224;SDS011;57497;43.322;21.932;2022-11-13T20:45:33;44.2;;;27.5;;
68224;SDS011;57497;43.322;21.932;2022-11-13T20:50:33;39.6;;;26.5;;
68224;SDS011;57497;43.322;21.932;2022-11-13T20:55:33;45.9;;;26.1;;
68224;SDS011;57497;43.322;21.932;2022-11-13T21:00:34;42.9;;;30.3;;
68224;SDS011;57497;43.322;21.932;2022-11-13T21:05:33;55.3;;;29.2;;
68224;SDS011;57497;43.322;21.932;2022-11-13T21:10:33;42.6;;;28.7;;
68224;SDS011;57497;43.322;21.932;2022-11-13T21:15:35;40.3;;;27.1;;
68224;SDS011;57497;43.322;21.932;2022-11-13T21:20:33;40.3;;;25.5;;
68224;SDS011;57497;43.322;21.932;2022-11-13T21:25:32;39.2;;;27.6;;
68224;SDS011;57497;43.322;21.932;2022-11-13T21:30:32;47;;;29;;
68224;SDS011;57497;43.322;21.932;2022-11-13T21:35:32;46.9;;;32.6;;
68224;SDS011;57497;43.322;21.932;2022-11-13T21:40:32;36.1;;;27.7;;
68224;SDS011;57497;43.322;21.932;2022-11-13T21:45:33;37.7;;;26.1;;
68224;SDS011;57497;43.322;21.932;2022-11-13T21:50:33;43.5;;;24.3;;
68224;SDS011;57497;43.322;21.932;2022-11-13T21:55:33;37.8;;;24.9;;
68224;SDS011;57497;43.322;21.932;2022-11-13T22:00:33;37.1;;;23.6;;
68224;SDS011;57497;43.322;21.932;2022-11-13T22:05:33;43.2;;;24.3;;
68224;SDS011;57497;43.322;21.932;2022-11-13T22:10:33;41.1;;;25.2;;
68224;SDS011;57497;43.322;21.932;2022-11-13T22:15:33;50.8;;;25.1;;
68224;SDS011;57497;43.322;21.932;2022-11-13T22:20:33;40.9;;;26.3;;
68224;SDS011;57497;43.322;21.932;2022-11-13T22:25:33;43.2;;;26.8;;
68224;SDS011;57497;43.322;21.932;2022-11-13T22:30:33;36.7;;;23.8;;
68224;SDS011;57497;43.322;21.932;2022-11-13T22:35:33;40.7;;;27.1;;
68224;SDS011;57497;43.322;21.932;2022-11-13T22:40:33;34.8;;;23.3;;
68224;SDS011;57497;43.322;21.932;2022-11-13T22:45:33;40.3;;;27.9;;
68224;SDS011;57497;43.322;21.932;2022-11-13T22:50:33;38.8;;;24.8;;
68224;SDS011;57497;43.322;21.932;2022-11-13T22:55:33;41.8;;;27.2;;
68224;SDS011;57497;43.322;21.932;2022-11-13T23:00:34;42.7;;;23.3;;
68224;SDS011;57497;43.322;21.932;2022-11-13T23:05:33;41.2;;;24.1;;
68224;SDS011;57497;43.322;21.932;2022-11-13T23:10:33;35.6;;;22.4;;
68224;SDS011;57497;43.322;21.932;2022-11-13T23:15:33;45;;;26.3;;
68224;SDS011;57497;43.322;21.932;2022-11-13T23:20:34;40;;;25.5;;
68224;SDS011;57497;43.322;21.932;2022-11-13T23:25:32;40.2;;;26.9;;
68224;SDS011;57497;43.322;21.932;2022-11-13T23:30:32;44.3;;;23.7;;
68224;SDS011;57497;43.322;21.932;2022-11-13T23:35:33;42.3;;;27.7;;
68224;SDS011;57497;43.322;21.932;2022-11-13T23:40:33;44.1;;;26.1;;
68224;SDS011;57497;43.322;21.932;2022-11-13T23:45:33;38.5;;;24.2;;
68224;SDS011;57497;43.322;21.932;2022-11-13T23:50:32;44.5;;;23.9;;
68224;SDS011;57497;43.322;21.932;2022-11-13T23:55:33;41.6;;;27.4;;
